< < Back
Terminal Aerodrome Forecast


Current Version              Previous Versions:   1  2  3  4  5  6  7  8  9  

Terminal Aerodrome Forecast

114
FTUS44 KMRX 271123
TAFTYS
TAF
KTYS 271123Z 2712/2812 00000KT P6SM SCT250
     FM271500 03005KT P6SM FEW050
     FM280100 00000KT P6SM SKC=



Latest METAR

210
SAUS80 KWBC 281400
MTRTYS
METAR KTYS 281353Z COR 22003KT 10SM FEW250 23/18 A3008 RMK AO2 SLP176
T02330183


USA.gov is the U.S. government's official web portal to all federal, state and local government web resources and services.